Bei Facebook empfehlenBei Twitter postenGoogle plusPinterest

Das Wetter im Erzgebirge am 13.11.2015

Wetter und Klima am 13.11.2015 Holzhau im Erzgebirge (630m ü.NN)
Letzte gemessene Temperatur und Uhrzeit der Messung23:45:00 Uhr5.80 °C
Temperatur (Maximum / Höchstwert) und Uhrzeit der Messung13:00:00 Uhr12.60 °C
Temperatur (Minimum / Tiefstwert) und Uhrzeit der Messung05:15:004.40 °C
Errechneter Absolutwert der Temperaturschwankungen zwischen Tmin und Tmax des Tages8.20 K
Errechnete Tagesmitteltemperatur8.31771 °C
Gesamt - Niederschlag des Tages (in flüssiger Form)1.03 Liter / m²
Luftdruck (Maximum / Höchstwert) und Zeitpunkt der Messung00:00:00 Uhr1022.50 hPa
Luftdruck (Minimum / Tiefstwert) und Zeitpunkt der Messung23:00:00 Uhr1016.70 hPa
Errechneter Absolutwert der Luftdruckschwankungen des Tages5.80 hPa
Höchste gemessene Windgeschwindigkeit und Uhrzeit der Messung14:00:00 Uhr25.20 km/h
Errechnete Windhäufigkeit in Relation zu den Messwerten des Tages50.00000 %
Niedrigste Windkühle (Windchill) und Zeitpunkt der Messung07:45:00 Uhr3.30 °C
Taupunkt (Maximum / Höchstwert) und Uhrzeit der Messung10:45:00 Uhr9.40 °C
Taupunkt (Minimum / Tiefstwert) und Uhrzeit der Messung05:15:003.20 °C
Anzahl der automatisch eingelesenen Messwerte 96

Detaillierte Wetter- und Klima- Messwerte für den 13.11.2015 in Holzhau im Erzgebirge (630m ü.NN)
ZeitTemperaturLuftdruckRel. LuftfeuchteWindWindrichtungWindchillTaupunktNiederschlag l/m²
23:45:005.80 °C1017.10 hPa87.00 %2.88 km/hW5.80 °C3.80 °C1.03
23:30:006.20 °C1017.30 hPa86.00 %4.00 °C0.51
23:15:007.40 °C1017.50 hPa83.00 %16.92 km/hW4.50 °C4.70 °C0.51
23:00:009.40 °C1016.70 hPa84.00 %4.68 km/hNW9.40 °C6.80 °C 
22:45:009.20 °C1016.70 hPa85.00 %5.76 km/hWNW8.60 °C6.80 °C 
22:30:009.10 °C1016.90 hPa85.00 %6.70 °C 
22:15:009.40 °C1016.80 hPa84.00 %5.76 km/hSW8.80 °C6.80 °C 
22:00:009.40 °C1016.90 hPa86.00 %24.48 km/hSW6.20 °C7.20 °C 
21:45:009.30 °C1017.10 hPa86.00 %9.00 km/hWNW8.00 °C7.10 °C 
21:30:009.30 °C1017.20 hPa86.00 %11.16 km/hSW7.60 °C7.10 °C 
21:15:009.30 °C1017.40 hPa86.00 %9.00 km/hWNW8.00 °C7.10 °C 
21:00:009.20 °C1017.40 hPa86.00 %7.00 °C 
20:45:009.20 °C1017.40 hPa86.00 %7.00 °C 
20:30:009.00 °C1017.50 hPa87.00 %4.68 km/hWSW9.00 °C7.00 °C 
20:15:008.80 °C1017.70 hPa87.00 %6.80 °C 
20:00:008.80 °C1017.70 hPa86.00 %6.60 °C 
19:45:008.70 °C1017.80 hPa86.00 %6.50 °C 
19:30:008.60 °C1017.90 hPa86.00 %6.40 °C 
19:15:008.30 °C1017.70 hPa86.00 %6.10 °C 
19:00:008.10 °C1017.60 hPa85.00 %5.70 °C 
18:45:008.50 °C1017.50 hPa84.00 %6.00 °C 
18:30:008.90 °C1017.50 hPa84.00 %6.30 °C 
18:15:009.10 °C1017.10 hPa84.00 %6.50 °C 
18:00:009.30 °C1017.10 hPa84.00 %3.24 km/hWNW9.30 °C6.70 °C 
17:45:009.30 °C1017.20 hPa83.00 %6.60 °C 
17:30:009.40 °C1017.50 hPa83.00 %6.70 °C 
17:15:009.50 °C1017.70 hPa82.00 %6.48 km/hW8.80 °C6.60 °C 
17:00:009.60 °C1017.60 hPa82.00 %6.70 °C 
16:45:009.80 °C1017.70 hPa81.00 %2.52 km/hSSW9.80 °C6.70 °C 
16:30:009.90 °C1017.90 hPa80.00 %3.60 km/hWSW9.90 °C6.60 °C 
16:15:0010.10 °C1017.80 hPa80.00 %8.28 km/hW9.10 °C6.80 °C 
16:00:0010.20 °C1018.10 hPa79.00 %10.44 km/hNW8.80 °C6.70 °C 
15:45:0010.40 °C1018.00 hPa79.00 %3.96 km/hWNW10.40 °C6.90 °C 
15:30:0010.40 °C1018.10 hPa78.00 %5.40 km/hWSW10.10 °C6.70 °C 
15:15:0010.80 °C1018.20 hPa77.00 %11.52 km/hWNW9.40 °C6.90 °C 
15:00:0010.90 °C1018.10 hPa76.00 %2.52 km/hSW10.90 °C6.80 °C 
14:45:0010.90 °C1018.20 hPa76.00 %9.00 km/hWSW9.90 °C6.80 °C 
14:30:0011.00 °C1018.30 hPa75.00 %5.76 km/hWNW10.70 °C6.70 °C 
14:15:0011.20 °C1018.50 hPa75.00 %6.12 km/hNW10.80 °C6.90 °C 
14:00:0011.40 °C1018.50 hPa75.00 %25.20 km/hW8.70 °C7.10 °C 
13:45:0011.60 °C1018.60 hPa75.00 %8.64 km/hWNW10.80 °C7.30 °C 
13:30:0011.90 °C1018.40 hPa75.00 %7.60 °C 
13:15:0012.10 °C1018.30 hPa74.00 %7.92 km/hWNW11.50 °C7.60 °C 
13:00:0012.60 °C1018.50 hPa74.00 %8.10 °C 
12:45:0012.40 °C1018.50 hPa75.00 %8.10 °C 
12:30:0012.30 °C1018.50 hPa76.00 %9.00 km/hW11.50 °C8.20 °C 
12:15:0011.90 °C1018.60 hPa77.00 %3.96 km/hWSW11.90 °C8.00 °C 
12:00:0012.00 °C1018.70 hPa79.00 %7.92 km/hSSW11.40 °C8.50 °C 
11:45:0012.00 °C1018.60 hPa81.00 %9.00 km/hW11.20 °C8.80 °C 
11:30:0011.80 °C1018.80 hPa83.00 %4.32 km/hW11.80 °C9.00 °C 
11:15:0011.10 °C1018.90 hPa85.00 %8.70 °C 
11:00:0011.20 °C1019.20 hPa86.00 %8.90 °C 
10:45:0011.30 °C1019.20 hPa88.00 %9.72 km/hSW10.20 °C9.40 °C 
10:30:0010.80 °C1019.20 hPa90.00 %2.52 km/hSW10.80 °C9.20 °C 
10:15:0010.20 °C1019.10 hPa91.00 %8.80 °C 
10:00:009.40 °C1019.00 hPa92.00 %8.20 °C 
09:45:008.80 °C1018.90 hPa92.00 %6.48 km/hSSW8.00 °C7.60 °C 
09:30:008.20 °C1019.00 hPa93.00 %1.44 km/hSSO8.20 °C7.10 °C 
09:15:007.50 °C1018.90 hPa93.00 %6.40 °C 
09:00:006.90 °C1018.90 hPa93.00 %5.80 °C 
08:45:006.60 °C1018.90 hPa93.00 %6.12 km/hSSW5.50 °C5.60 °C 
08:30:006.40 °C1019.20 hPa93.00 %1.80 km/hS6.40 °C5.40 °C 
08:15:006.40 °C1019.20 hPa93.00 %5.40 °C 
08:00:006.30 °C1019.30 hPa93.00 %8.28 km/hSSO4.60 °C5.30 °C 
07:45:006.10 °C1019.20 hPa93.00 %13.68 km/hSW3.30 °C5.10 °C 
07:30:005.90 °C1019.40 hPa93.00 %6.48 km/hWSW4.60 °C4.90 °C 
07:15:005.90 °C1019.40 hPa93.00 %1.80 km/hSW5.90 °C4.90 °C 
07:00:006.00 °C1019.40 hPa93.00 %8.64 km/hOSO4.20 °C5.00 °C 
06:45:005.90 °C1019.40 hPa93.00 %11.88 km/hSSO3.40 °C4.90 °C 
06:30:005.80 °C1019.70 hPa93.00 %4.80 °C 
06:15:005.60 °C1019.70 hPa93.00 %7.56 km/hS4.00 °C4.60 °C 
06:00:005.30 °C1019.70 hPa93.00 %4.30 °C 
05:45:005.20 °C1020.00 hPa93.00 %3.96 km/hSSW5.20 °C4.20 °C 
05:30:004.80 °C1020.10 hPa92.00 %3.60 km/hW4.80 °C3.60 °C 
05:15:004.40 °C1020.10 hPa92.00 %3.20 °C 
05:00:004.40 °C1020.20 hPa92.00 %3.20 °C 
04:45:004.70 °C1020.30 hPa91.00 %3.40 °C 
04:30:005.10 °C1020.40 hPa91.00 %1.80 km/hOSO5.10 °C3.80 °C 
04:15:005.80 °C1020.40 hPa91.00 %4.40 °C 
04:00:006.40 °C1020.30 hPa92.00 %5.20 °C 
03:45:006.80 °C1020.70 hPa92.00 %5.60 °C 
03:30:006.90 °C1020.60 hPa92.00 %5.70 °C 
03:15:006.90 °C1020.70 hPa92.00 %5.70 °C 
03:00:006.60 °C1021.10 hPa92.00 %5.40 °C 
02:45:006.60 °C1021.10 hPa93.00 %5.60 °C 
02:30:006.20 °C1021.30 hPa93.00 %2.52 km/hSO6.20 °C5.20 °C 
02:15:005.90 °C1021.40 hPa93.00 %4.90 °C 
02:00:005.80 °C1021.20 hPa93.00 %4.80 °C 
01:45:005.90 °C1021.30 hPa92.00 %4.70 °C 
01:30:006.10 °C1021.40 hPa92.00 %4.90 °C 
01:15:005.80 °C1021.50 hPa93.00 %4.80 °C 
01:00:005.40 °C1021.70 hPa93.00 %4.40 °C 
00:45:005.40 °C1021.90 hPa92.00 %4.20 °C 
00:30:005.40 °C1022.20 hPa92.00 %4.20 °C 
00:15:005.30 °C1022.40 hPa92.00 %4.10 °C 
00:00:005.40 °C1022.50 hPa92.00 %4.20 °C 

Permanenter Link zu dieser Seite: Wetter im Erzgebirge am 13.11.2015
Performance-Info: Die Erstellung der Seite / Statistik(en) / Tabelle(n) erforderte 5 Datenbankserver-Abfrage(n) und dauerte 114 Millisekunden. (Dieser Messwert ist von der Gesamt-Auslastung des Servers abhängig.)
Erzgebirge - Wetter | Erzgebirge - Wetter (Mobilgeräte) | Komplette Klimadatenbank